Time;durP1;ratioP1;P1;durP2;ratioP2;P2;SDS_P1;SDS_P2;PMS_P1;PMS_P2;Temp;Humidity;BMP_temperature;BMP_pressure;BME280_temperature;BME280_humidity;BME280_pressure;Samples;Min_cycle;Max_cycle;Signal;HPM_P1;HPM_P2
2023/03/06 00:02:18;;;;;;;15.25;11.82;;;;;;;8.31;58.72;97613.69;5052151;28;20656;-60
2023/03/06 00:04:44;;;;;;;14.73;9.57;;;;;;;7.99;59.36;97569.59;5052142;28;20213;-60
2023/03/06 00:07:09;;;;;;;11.70;8.20;;;;;;;7.98;58.85;97580.03;5054014;28;20197;-60
2023/03/06 00:09:34;;;;;;;13.75;9.35;;;;;;;7.95;59.03;97575.91;5032775;28;20244;-59
2023/03/06 00:12:00;;;;;;;13.43;9.20;;;;;;;8.21;59.82;97623.84;5032282;28;20191;-60
2023/03/06 00:14:25;;;;;;;13.45;8.60;;;;;;;7.83;59.38;97563.91;5032233;28;20186;-59
2023/03/06 00:16:54;;;;;;;12.25;8.13;;;;;;;7.71;59.19;97564.78;5032409;28;20205;-59
2023/03/06 00:19:21;;;;;;;11.00;8.27;;;;;;;7.90;59.54;97603.75;5031876;28;20387;-59
2023/03/06 00:21:46;;;;;;;13.38;8.15;;;;;;;7.68;59.18;97577.84;5031916;28;20786;-60
2023/03/06 00:24:11;;;;;;;13.40;10.18;;;;;;;7.55;59.81;97569.34;5032194;28;20261;-60
2023/03/06 00:26:38;;;;;;;11.20;8.35;;;;;;;8.03;59.36;97630.28;5032089;28;20186;-60
2023/03/06 00:29:04;;;;;;;12.07;8.00;;;;;;;7.75;59.93;97584.22;5031685;28;20277;-59
2023/03/06 00:31:29;;;;;;;12.13;8.65;;;;;;;7.99;59.17;97625.44;5031973;28;20340;-59
2023/03/06 00:33:54;;;;;;;11.30;7.43;;;;;;;7.87;60.38;97621.16;5031645;28;20668;-60
2023/03/06 00:36:20;;;;;;;12.70;8.93;;;;;;;7.98;59.18;97628.97;5031672;28;20214;-60
2023/03/06 00:38:45;;;;;;;11.80;8.65;;;;;;;7.63;59.91;97566.25;5032367;28;20182;-60
2023/03/06 00:41:12;;;;;;;10.82;8.48;;;;;;;7.99;60.57;97636.56;5048290;28;20193;-60
2023/03/06 00:43:38;;;;;;;10.63;7.82;;;;;;;8.06;60.27;97636.97;5053589;28;20196;-60
2023/03/06 00:46:04;;;;;;;12.30;9.43;;;;;;;7.98;60.79;97627.19;5053610;28;20178;-60
2023/03/06 00:48:31;;;;;;;12.75;7.88;;;;;;;8.04;59.77;97623.38;5053569;28;20213;-60
2023/03/06 00:50:57;;;;;;;11.15;8.52;;;;;;;7.70;59.96;97588.84;5053566;28;20315;-60
2023/03/06 00:53:22;;;;;;;12.13;8.07;;;;;;;7.76;60.70;97588.44;5053812;28;20180;-60
2023/03/06 00:55:49;;;;;;;12.38;8.55;;;;;;;8.06;59.96;97637.81;5053631;28;20576;-60
2023/03/06 00:58:15;;;;;;;14.18;9.07;;;;;;;7.65;59.64;97574.66;5053427;28;20185;-60
2023/03/06 01:00:41;;;;;;;14.85;9.10;;;;;;;7.78;59.58;97602.03;5053357;28;20166;-60
2023/03/06 01:03:06;;;;;;;10.63;8.57;;;;;;;7.94;58.95;97628.34;5053257;28;20181;-60
2023/03/06 01:05:34;;;;;;;11.85;7.90;;;;;;;7.67;59.25;97583.09;5053266;28;20181;-60
2023/03/06 01:08:00;;;;;;;12.07;8.63;;;;;;;7.90;59.68;97644.13;5053176;28;20193;-60
2023/03/06 01:10:26;;;;;;;12.85;8.10;;;;;;;7.82;60.35;97629.19;5053171;28;20662;-60
2023/03/06 01:12:52;;;;;;;13.45;8.38;;;;;;;7.52;60.53;97579.03;5053183;28;20166;-60
2023/03/06 01:15:17;;;;;;;11.13;7.85;;;;;;;7.52;61.07;97589.34;5053111;28;20201;-60
2023/03/06 01:17:43;;;;;;;12.35;8.80;;;;;;;7.40;62.15;97587.59;5053237;28;20663;-60
2023/03/06 01:20:13;;;;;;;10.68;8.20;;;;;;;7.41;63.11;97587.47;5053265;28;20254;-60
2023/03/06 01:22:38;;;;;;;12.00;9.05;;;;;;;7.40;62.24;97588.41;5053247;28;20174;-60
2023/03/06 01:25:04;;;;;;;17.23;8.65;;;;;;;7.52;61.62;97600.44;5053226;28;20185;-60
2023/03/06 01:27:29;;;;;;;12.32;8.07;;;;;;;7.45;61.08;97585.53;5053149;28;20560;-60
2023/03/06 01:29:55;;;;;;;10.82;8.65;;;;;;;7.54;61.02;97601.16;5053129;28;20255;-60
2023/03/06 01:32:20;;;;;;;11.68;8.50;;;;;;;7.57;62.90;97629.25;5052716;28;20257;-59
2023/03/06 01:34:46;;;;;;;11.40;8.02;;;;;;;6.99;65.82;97605.84;5052769;28;20178;-60
2023/03/06 01:37:12;;;;;;;10.40;8.38;;;;;;;6.69;67.63;97589.88;5052924;28;20255;-60
2023/03/06 01:39:37;;;;;;;9.95;7.60;;;;;;;6.86;68.23;97635.88;5052684;28;20688;-60
2023/03/06 01:42:03;;;;;;;12.18;8.25;;;;;;;6.46;67.85;97546.09;5052646;28;20205;-60
2023/03/06 01:44:29;;;;;;;12.73;8.63;;;;;;;6.88;68.82;97646.88;5052619;28;20273;-60
2023/03/06 01:46:54;;;;;;;12.55;8.80;;;;;;;6.53;67.94;97596.94;5052578;28;20242;-60
2023/03/06 01:49:21;;;;;;;10.82;8.15;;;;;;;6.78;69.50;97653.56;5052228;28;20208;-60
2023/03/06 01:51:51;;;;;;;12.48;8.55;;;;;;;6.47;70.42;97597.34;5052503;28;20213;-59
2023/03/06 01:54:22;;;;;;;13.15;8.85;;;;;;;6.74;71.71;97652.09;5052316;28;20196;-59
2023/03/06 01:56:50;;;;;;;13.70;9.05;;;;;;;6.60;72.11;97659.06;5052688;28;20189;-60
2023/03/06 01:59:15;;;;;;;12.30;8.50;;;;;;;6.41;72.97;97651.69;5030287;28;20186;-60
2023/03/06 02:01:43;;;;;;;10.77;8.57;;;;;;;6.35;73.24;97644.38;5030338;28;20179;-60
2023/03/06 02:04:09;;;;;;;11.13;8.50;;;;;;;6.51;71.77;97654.50;5030375;28;20569;-59
2023/03/06 02:06:41;;;;;;;11.52;9.27;;;;;;;6.45;72.08;97665.16;5030013;28;20178;-60
2023/03/06 02:09:09;;;;;;;11.23;8.77;;;;;;;6.41;72.51;97667.09;5030162;28;20691;-60
2023/03/06 02:11:34;;;;;;;11.70;8.63;;;;;;;6.41;72.63;97661.97;5030044;28;20184;-59
2023/03/06 02:14:00;;;;;;;13.68;8.25;;;;;;;6.39;73.37;97666.41;5030146;28;20285;-60
2023/03/06 02:16:29;;;;;;;10.45;8.02;;;;;;;6.26;73.77;97650.13;5030149;28;20237;-60
2023/03/06 02:18:55;;;;;;;13.82;8.15;;;;;;;6.16;74.17;97643.06;5030046;28;20186;-60
2023/03/06 02:21:26;;;;;;;13.25;8.77;;;;;;;5.56;75.51;97595.53;5030180;28;20241;-59
2023/03/06 02:24:16;;;;;;;10.68;8.05;;;;;;;5.90;76.20;97656.72;5030530;28;20252;-60
2023/03/06 02:26:43;;;;;;;12.15;8.23;;;;;;;5.72;77.27;97666.34;5030722;28;20171;-60
2023/03/06 02:29:09;;;;;;;11.75;8.07;;;;;;;5.44;77.16;97612.50;5030986;28;20206;-59
2023/03/06 02:31:34;;;;;;;12.30;8.52;;;;;;;5.79;77.24;97664.22;5052656;28;20213;-60
2023/03/06 02:34:23;;;;;;;12.07;8.70;;;;;;;5.89;76.33;97670.47;5052019;28;20560;-60
2023/03/06 02:36:57;;;;;;;11.77;8.18;;;;;;;5.59;76.92;97611.56;5051744;28;20212;-60
2023/03/06 02:39:27;;;;;;;13.95;8.77;;;;;;;5.79;77.55;97670.19;5052392;28;20169;-60
2023/03/06 02:41:52;;;;;;;12.55;8.50;;;;;;;5.60;77.50;97633.72;5052272;28;20177;-60
2023/03/06 02:44:18;;;;;;;14.98;9.38;;;;;;;5.56;78.53;97659.66;5052497;28;20273;-60
2023/03/06 02:46:44;;;;;;;13.13;9.15;;;;;;;5.18;79.35;97615.00;5052192;28;20530;-59
2023/03/06 02:49:09;;;;;;;12.18;8.25;;;;;;;5.13;79.87;97602.44;5051939;28;20178;-59
2023/03/06 02:51:34;;;;;;;11.98;9.32;;;;;;;5.23;79.95;97615.50;5051860;28;20686;-60
2023/03/06 02:54:00;;;;;;;11.88;8.77;;;;;;;5.45;80.10;97669.75;5052448;28;20178;-60
2023/03/06 02:56:25;;;;;;;11.32;8.02;;;;;;;4.87;81.28;97615.97;5052426;28;20544;-60
2023/03/06 02:58:51;;;;;;;12.40;8.38;;;;;;;5.03;81.81;97652.63;5049886;28;20193;-60
2023/03/06 03:01:16;;;;;;;14.18;8.82;;;;;;;4.79;82.02;97627.56;5050189;28;20194;-60
2023/03/06 03:03:42;;;;;;;10.82;8.68;;;;;;;4.96;83.22;97671.00;5049906;28;20189;-59
2023/03/06 03:06:07;;;;;;;11.55;9.13;;;;;;;4.63;82.59;97609.72;5049448;28;20276;-60
2023/03/06 03:08:33;;;;;;;14.70;9.50;;;;;;;4.66;82.88;97611.28;5049951;28;20732;-60
2023/03/06 03:11:00;;;;;;;14.10;9.65;;;;;;;4.75;82.65;97620.97;5029610;28;20186;-59
2023/03/06 03:13:26;;;;;;;14.02;9.02;;;;;;;4.89;82.90;97655.13;5029656;28;20665;-59
2023/03/06 03:16:05;;;;;;;12.85;8.65;;;;;;;4.47;85.04;97616.63;5030719;28;20194;-59
2023/03/06 03:18:31;;;;;;;11.75;8.55;;;;;;;4.85;84.64;97663.91;5033388;28;20644;-60
2023/03/06 03:20:57;;;;;;;19.27;9.95;;;;;;;4.86;85.53;97662.19;5033047;28;20221;-60
2023/03/06 03:23:23;;;;;;;13.70;9.68;;;;;;;4.59;85.12;97597.97;5033331;28;20187;-59
2023/03/06 03:25:49;;;;;;;12.75;8.57;;;;;;;4.77;84.92;97619.13;5032978;28;20183;-59
2023/03/06 03:28:15;;;;;;;11.32;8.55;;;;;;;5.04;84.43;97663.66;5032826;28;20670;-60
2023/03/06 03:30:40;;;;;;;14.18;9.10;;;;;;;5.13;84.18;97670.84;5033255;28;20186;-60
2023/03/06 03:33:06;;;;;;;14.30;8.73;;;;;;;4.88;86.16;97617.63;5032920;28;20333;-60
2023/03/06 03:35:32;;;;;;;15.75;8.93;;;;;;;4.88;86.92;97668.88;5032698;28;20269;-59
2023/03/06 03:37:57;;;;;;;12.00;8.82;;;;;;;4.44;88.38;97618.53;5032610;28;20202;-59
2023/03/06 03:40:23;;;;;;;11.35;9.05;;;;;;;4.21;89.52;97566.03;5032924;28;20652;-59
2023/03/06 03:42:48;;;;;;;14.50;9.50;;;;;;;4.68;91.32;97678.59;5050109;28;20191;-60
2023/03/06 03:45:14;;;;;;;11.80;9.65;;;;;;;4.53;92.44;97671.78;5052527;28;20186;-60
2023/03/06 03:47:39;;;;;;;14.05;9.55;;;;;;;4.18;92.04;97620.00;5052975;28;20185;-60
2023/03/06 03:50:05;;;;;;;13.55;9.80;;;;;;;4.51;89.80;97674.44;5052419;28;20182;-59
2023/03/06 03:52:31;;;;;;;16.17;9.50;;;;;;;4.30;90.90;97691.00;5052457;28;20190;-60
2023/03/06 03:54:56;;;;;;;13.45;9.48;;;;;;;4.32;89.29;97684.03;5052238;28;20225;-59
2023/03/06 03:57:22;;;;;;;12.35;9.27;;;;;;;4.19;89.10;97639.56;5052258;28;20258;-59
2023/03/06 03:59:47;;;;;;;15.13;8.65;;;;;;;4.47;88.15;97677.25;5054826;28;20177;-60
2023/03/06 04:02:13;;;;;;;18.27;9.48;;;;;;;4.49;88.61;97678.81;5055297;28;20173;-60
2023/03/06 04:04:39;;;;;;;14.15;10.43;;;;;;;4.03;88.33;97589.31;5054437;28;20264;-60
2023/03/06 04:07:05;;;;;;;14.55;9.93;;;;;;;4.35;88.24;97648.03;5054397;28;20186;-60
2023/03/06 04:09:30;;;;;;;16.15;9.95;;;;;;;4.40;89.69;97652.91;5054928;28;20177;-59
2023/03/06 04:11:56;;;;;;;13.65;8.52;;;;;;;4.16;88.62;97608.19;5054354;28;20574;-59
2023/03/06 04:14:21;;;;;;;14.73;8.57;;;;;;;4.41;87.82;97641.72;5054588;28;20268;-59
2023/03/06 04:16:46;;;;;;;13.32;9.50;;;;;;;4.68;87.99;97705.06;5054966;28;20201;-59
2023/03/06 04:19:12;;;;;;;13.13;8.38;;;;;;;4.70;88.90;97708.34;5054531;28;20608;-60
2023/03/06 04:21:37;;;;;;;13.07;9.00;;;;;;;4.24;92.05;97678.53;5054202;28;20176;-60
2023/03/06 04:24:03;;;;;;;13.32;9.20;;;;;;;4.45;92.77;97710.66;5054149;28;20636;-60
2023/03/06 04:26:28;;;;;;;14.00;8.88;;;;;;;4.19;93.68;97656.66;5054023;28;20181;-59
2023/03/06 04:28:54;;;;;;;16.45;9.75;;;;;;;4.32;96.38;97701.16;5054042;28;20549;-59
2023/03/06 04:31:20;;;;;;;14.63;10.40;;;;;;;4.07;96.21;97701.66;5053997;28;20201;-60
2023/03/06 04:33:46;;;;;;;16.65;10.68;;;;;;;4.12;94.86;97715.03;5053977;28;20256;-59
2023/03/06 04:36:27;;;;;;;19.05;12.05;;;;;;;4.25;94.44;97708.34;5054066;28;20185;-60
2023/03/06 04:38:52;;;;;;;19.33;12.00;;;;;;;4.13;96.14;97719.25;5054333;28;20185;-59
2023/03/06 04:41:18;;;;;;;18.08;11.88;;;;;;;3.97;97.12;97674.91;5053757;28;20667;-60
2023/03/06 04:43:43;;;;;;;19.25;12.73;;;;;;;3.99;95.91;97657.75;5053798;28;20178;-59
2023/03/06 04:46:10;;;;;;;22.27;10.23;;;;;;;4.29;96.25;97717.50;5053675;28;20224;-59
2023/03/06 04:48:35;;;;;;;12.68;9.38;;;;;;;4.00;96.75;97677.31;5053622;28;20695;-60
2023/03/06 04:51:01;;;;;;;14.30;9.77;;;;;;;4.35;96.41;97724.00;5053529;28;20177;-60
2023/03/06 04:53:26;;;;;;;15.18;9.98;;;;;;;4.09;94.42;97675.97;5031359;28;20194;-60
2023/03/06 04:55:51;;;;;;;12.52;9.48;;;;;;;4.37;94.53;97723.03;5031303;28;20213;-60
2023/03/06 04:58:17;;;;;;;14.35;9.55;;;;;;;4.49;93.93;97732.59;5031293;28;20230;-59
2023/03/06 05:00:42;;;;;;;14.23;9.43;;;;;;;4.52;94.37;97724.75;5031116;28;20613;-60
2023/03/06 05:03:08;;;;;;;13.63;11.27;;;;;;;4.52;94.71;97734.16;5031324;28;20194;-59
2023/03/06 05:05:36;;;;;;;12.63;10.23;;;;;;;3.58;98.07;97642.97;5030999;28;20240;-59
2023/03/06 05:08:02;;;;;;;16.13;10.48;;;;;;;3.99;100.00;97742.19;5031357;28;20222;-59
2023/03/06 05:10:29;;;;;;;14.35;9.45;;;;;;;3.92;100.00;97753.63;5031486;28;20231;-59
2023/03/06 05:12:55;;;;;;;16.40;9.73;;;;;;;3.46;100.00;97700.69;5030927;28;20191;-59
2023/03/06 05:15:20;;;;;;;15.45;9.63;;;;;;;3.73;100.00;97747.03;5031350;28;20261;-59
2023/03/06 05:17:48;;;;;;;16.65;9.82;;;;;;;3.16;100.00;97663.91;5030774;28;20649;-60
2023/03/06 05:20:15;;;;;;;12.10;9.90;;;;;;;3.79;100.00;97760.31;5030681;28;20188;-59
2023/03/06 05:22:41;;;;;;;14.40;9.38;;;;;;;3.74;100.00;97757.16;5030945;28;20193;-59
2023/03/06 05:25:07;;;;;;;14.98;9.63;;;;;;;3.76;100.00;97740.03;5048131;28;20632;-59
2023/03/06 05:27:33;;;;;;;14.07;10.00;;;;;;;3.99;100.00;97756.72;5053711;28;20189;-59
2023/03/06 05:29:59;;;;;;;14.60;9.45;;;;;;;3.97;100.00;97773.91;5053144;28;20180;-59
2023/03/06 05:32:24;;;;;;;15.07;9.38;;;;;;;4.11;100.00;97771.41;5053133;28;20578;-59
2023/03/06 05:34:50;;;;;;;16.75;9.90;;;;;;;4.11;100.00;97771.41;5052527;28;20249;-60
2023/03/06 05:37:15;;;;;;;14.45;9.60;;;;;;;3.81;100.00;97720.16;5052648;28;20202;-60
2023/03/06 05:39:41;;;;;;;16.50;10.07;;;;;;;4.24;100.00;97780.94;5052333;28;20178;-59
2023/03/06 05:42:06;;;;;;;13.98;9.82;;;;;;;4.18;100.00;97763.34;5053207;28;20182;-59
2023/03/06 05:44:33;;;;;;;14.73;9.30;;;;;;;4.10;100.00;97762.94;5052566;28;20174;-60
2023/03/06 05:46:59;;;;;;;14.60;9.77;;;;;;;4.04;100.00;97732.53;5053077;28;20212;-59
2023/03/06 05:49:24;;;;;;;11.68;8.80;;;;;;;3.98;100.00;97730.28;5053051;28;20205;-59
2023/03/06 05:51:50;;;;;;;16.55;10.10;;;;;;;4.00;100.00;97732.78;5052506;28;20181;-60
2023/03/06 05:54:15;;;;;;;15.00;10.20;;;;;;;4.06;100.00;97740.97;5052268;28;20178;-59
2023/03/06 05:56:40;;;;;;;15.10;9.95;;;;;;;4.31;100.00;97784.81;5030489;28;20305;-59
2023/03/06 05:59:07;;;;;;;16.08;10.57;;;;;;;4.41;100.00;97801.34;5030278;28;20202;-59
2023/03/06 06:01:32;;;;;;;15.60;9.82;;;;;;;4.23;100.00;97746.00;5030208;28;20201;-59
2023/03/06 06:03:58;;;;;;;12.95;9.82;;;;;;;4.50;100.00;97769.28;5030434;28;20198;-59
2023/03/06 06:06:23;;;;;;;12.32;9.25;;;;;;;4.51;100.00;97761.53;5030136;28;20692;-59
2023/03/06 06:08:49;;;;;;;12.93;9.85;;;;;;;4.96;100.00;97802.53;5030271;28;20196;-59
2023/03/06 06:11:14;;;;;;;15.52;9.57;;;;;;;5.04;100.00;97812.34;5030070;28;20182;-59
2023/03/06 06:13:40;;;;;;;17.55;9.68;;;;;;;5.06;100.00;97816.50;5030269;28;20664;-59
2023/03/06 06:16:10;;;;;;;14.50;9.25;;;;;;;4.98;100.00;97795.59;5030180;28;20293;-59
2023/03/06 06:18:36;;;;;;;16.35;11.05;;;;;;;5.18;99.63;97817.56;5030467;28;20194;-59
2023/03/06 06:21:09;;;;;;;14.18;9.23;;;;;;;4.93;99.26;97778.81;5029940;28;20203;-59
2023/03/06 06:23:35;;;;;;;14.85;9.85;;;;;;;4.99;99.95;97798.97;5030193;28;20691;-59
2023/03/06 06:26:03;;;;;;;14.35;9.98;;;;;;;5.25;99.86;97821.41;5029915;28;20186;-59
2023/03/06 06:28:29;;;;;;;20.33;9.57;;;;;;;4.99;99.59;97779.28;5029913;28;20592;-60
2023/03/06 06:30:55;;;;;;;12.82;9.52;;;;;;;4.87;98.83;97749.22;5029884;28;20248;-60
2023/03/06 06:33:21;;;;;;;14.95;10.20;;;;;;;5.36;97.78;97824.19;5034576;28;20186;-59
2023/03/06 06:35:46;;;;;;;14.02;9.30;;;;;;;5.17;97.88;97782.53;5052083;28;20178;-59
2023/03/06 06:38:11;;;;;;;17.67;9.38;;;;;;;5.46;97.30;97820.16;5052016;28;20284;-60
2023/03/06 06:40:37;;;;;;;13.27;9.75;;;;;;;5.47;97.04;97816.72;5052074;28;20186;-60
2023/03/06 06:43:02;;;;;;;13.75;9.32;;;;;;;5.29;96.75;97777.53;5051773;28;20197;-59
2023/03/06 06:45:28;;;;;;;15.57;9.07;;;;;;;5.69;95.81;97820.50;5051614;28;20185;-59
2023/03/06 06:47:53;;;;;;;14.02;8.85;;;;;;;5.47;95.91;97773.09;5052469;28;20178;-59
2023/03/06 06:50:18;;;;;;;15.65;9.20;;;;;;;5.84;94.61;97811.91;5054010;28;20549;-59
2023/03/06 06:52:44;;;;;;;15.98;9.63;;;;;;;5.85;93.97;97808.47;5055848;28;20257;-59
2023/03/06 06:55:10;;;;;;;16.20;9.85;;;;;;;5.72;93.58;97784.38;5055648;28;20301;-59
2023/03/06 06:57:35;;;;;;;14.15;9.82;;;;;;;6.00;93.92;97829.84;5055690;28;20671;-60
2023/03/06 07:00:02;;;;;;;14.57;9.93;;;;;;;5.85;92.46;97782.78;5055371;28;20185;-59
2023/03/06 07:02:27;;;;;;;14.10;9.55;;;;;;;6.34;91.95;97837.97;5055564;28;20247;-59
2023/03/06 07:04:53;;;;;;;16.48;9.40;;;;;;;6.53;90.40;97847.97;5055490;28;20265;-60
2023/03/06 07:07:18;;;;;;;12.98;9.75;;;;;;;6.53;89.90;97815.38;5055499;28;20552;-60
2023/03/06 07:09:44;;;;;;;16.27;9.73;;;;;;;6.67;87.46;97776.78;5055139;28;20177;-59
2023/03/06 07:12:09;;;;;;;12.50;8.93;;;;;;;6.90;86.15;97801.03;5055664;28;20542;-59
2023/03/06 07:14:35;;;;;;;13.25;9.15;;;;;;;7.31;85.61;97855.81;5055423;28;20177;-59
2023/03/06 07:17:00;;;;;;;15.93;9.88;;;;;;;7.15;85.91;97804.53;5055232;28;20193;-59
2023/03/06 07:19:26;;;;;;;16.85;11.68;;;;;;;7.49;85.97;97834.88;5055323;28;20261;-60
2023/03/06 07:21:51;;;;;;;16.25;9.93;;;;;;;7.48;83.83;97809.22;5055088;28;20177;-59
2023/03/06 07:24:16;;;;;;;12.73;9.63;;;;;;;7.57;83.19;97798.34;5054531;28;20178;-60
2023/03/06 07:26:48;;;;;;;16.23;10.40;;;;;;;8.07;82.67;97860.16;5055135;28;20173;-60
2023/03/06 07:29:14;;;;;;;15.27;10.27;;;;;;;8.20;79.93;97854.09;5055470;28;20192;-60
2023/03/06 07:31:39;;;;;;;15.73;10.60;;;;;;;8.35;78.38;97860.81;5055248;28;20235;-60
2023/03/06 07:34:05;;;;;;;12.15;9.27;;;;;;;8.52;77.92;97862.22;5055374;28;20178;-60
2023/03/06 07:36:32;;;;;;;15.35;9.77;;;;;;;8.14;75.74;97815.00;5054956;28;20197;-60
2023/03/06 07:38:57;;;;;;;15.10;9.93;;;;;;;8.24;73.37;97824.63;5055471;28;20255;-60
2023/03/06 07:41:22;;;;;;;12.43;9.38;;;;;;;8.32;72.58;97871.31;5054941;28;20174;-60
2023/03/06 07:43:48;;;;;;;14.43;10.43;;;;;;;7.98;71.70;97788.66;5054918;28;20223;-59
2023/03/06 07:46:14;;;;;;;14.90;10.18;;;;;;;8.62;70.91;97879.53;5054893;28;20174;-60
2023/03/06 07:48:41;;;;;;;19.17;10.32;;;;;;;8.84;69.58;97874.53;5054765;28;20191;-60
2023/03/06 07:51:12;;;;;;;15.13;10.68;;;;;;;8.69;67.24;97831.72;5054790;28;20201;-59
2023/03/06 07:53:37;;;;;;;13.32;9.82;;;;;;;9.13;67.50;97886.19;5053886;28;20198;-60
2023/03/06 07:56:07;;;;;;;16.80;10.05;;;;;;;8.77;67.57;97801.09;5055064;28;20762;-60
2023/03/06 07:58:37;;;;;;;14.93;10.48;;;;;;;9.34;66.01;97871.78;5055558;28;20177;-60
2023/03/06 08:01:08;;;;;;;14.43;10.57;;;;;;;9.43;65.15;97891.75;5053919;28;20174;-60
2023/03/06 08:03:34;;;;;;;14.57;10.32;;;;;;;9.59;65.32;97897.44;5054212;28;20189;-60
2023/03/06 08:06:26;;;;;;;14.05;10.75;;;;;;;9.52;64.17;97901.41;5055065;28;20178;-60
2023/03/06 08:08:53;;;;;;;17.02;11.38;;;;;;;9.32;64.45;97858.13;5052230;28;20198;-60
2023/03/06 08:11:21;;;;;;;14.55;10.60;;;;;;;9.58;64.34;97882.91;5054402;28;20178;-60
2023/03/06 08:13:47;;;;;;;18.20;11.25;;;;;;;9.73;63.90;97889.50;5054647;28;20702;-60
2023/03/06 08:16:18;;;;;;;15.25;10.27;;;;;;;9.58;64.36;97841.56;5054461;28;20185;-60
2023/03/06 08:18:43;;;;;;;12.48;9.93;;;;;;;9.95;64.22;97887.84;5054635;28;20170;-60
2023/03/06 08:21:14;;;;;;;16.00;11.20;;;;;;;10.18;61.75;97904.22;5054173;28;20264;-60
2023/03/06 08:23:41;;;;;;;17.33;11.55;;;;;;;9.86;62.17;97848.94;5054724;28;20212;-60
2023/03/06 08:26:09;;;;;;;17.58;10.45;;;;;;;10.10;62.65;97870.41;5054362;28;20212;-60
2023/03/06 08:28:37;;;;;;;16.20;11.52;;;;;;;10.09;63.05;97845.50;5054373;28;20181;-60
2023/03/06 08:31:47;;;;;;;18.30;10.82;;;;;;;10.19;62.50;97891.19;5054046;28;20220;-60
2023/03/06 08:34:19;;;;;;;15.30;10.75;;;;;;;9.76;63.35;97841.03;5053588;28;20189;-60
2023/03/06 08:36:45;;;;;;;19.55;11.07;;;;;;;9.82;63.50;97839.75;5054697;28;20202;-60
2023/03/06 08:39:11;;;;;;;13.57;10.40;;;;;;;10.25;63.57;97875.22;5053886;28;20632;-60
2023/03/06 08:41:40;;;;;;;17.15;10.23;;;;;;;10.14;63.64;97825.25;5053831;28;20189;-60
2023/03/06 08:44:06;;;;;;;16.13;9.57;;;;;;;10.55;62.02;97869.47;5054304;28;20181;-60
2023/03/06 08:46:32;;;;;;;13.75;9.55;;;;;;;10.47;62.06;97849.38;5053725;28;20177;-60
2023/03/06 08:48:58;;;;;;;16.02;10.05;;;;;;;10.45;63.28;97829.75;5053662;28;20178;-60
2023/03/06 08:51:23;;;;;;;17.83;13.48;;;;;;;10.72;62.91;97858.63;5053578;28;20181;-60
2023/03/06 08:53:50;;;;;;;19.55;12.65;;;;;;;10.83;62.59;97867.22;5051601;28;20277;-60
2023/03/06 08:56:18;;;;;;;14.57;9.75;;;;;;;11.00;62.65;97868.47;5051179;28;20731;-60
2023/03/06 08:58:44;;;;;;;15.15;9.65;;;;;;;10.99;62.78;97856.47;5051301;28;20344;-60
2023/03/06 09:01:18;;;;;;;15.57;10.05;;;;;;;10.81;62.25;97806.19;5051657;28;20178;-60
2023/03/06 09:03:43;;;;;;;19.13;10.88;;;;;;;10.91;61.33;97807.91;5051830;28;20562;-60
2023/03/06 09:06:09;;;;;;;18.55;10.80;;;;;;;11.07;63.04;97851.50;5070956;28;20185;-60
2023/03/06 09:08:34;;;;;;;13.65;9.68;;;;;;;11.25;62.58;97857.81;5071124;28;20185;-60
2023/03/06 09:11:00;;;;;;;13.45;9.65;;;;;;;11.13;62.45;97819.97;5071301;28;20229;-59
2023/03/06 09:13:25;;;;;;;14.27;10.60;;;;;;;11.36;61.13;97830.13;5069876;28;20193;-59
2023/03/06 09:15:51;;;;;;;14.15;10.48;;;;;;;11.41;61.40;97814.22;5071167;28;20195;-59
2023/03/06 09:18:16;;;;;;;11.40;9.10;;;;;;;11.53;60.17;97816.63;5070625;28;20224;-58
2023/03/06 09:20:42;;;;;;;11.75;9.38;;;;;;;11.55;60.15;97808.75;5070750;28;20181;-59
2023/03/06 09:23:08;;;;;;;12.75;8.70;;;;;;;11.37;59.21;97779.16;5070923;28;20577;-58
2023/03/06 09:25:34;;;;;;;14.60;9.45;;;;;;;11.65;59.28;97809.63;5070837;28;20193;-58
2023/03/06 09:27:59;;;;;;;14.00;9.90;;;;;;;11.65;59.33;97807.88;5070562;28;20181;-58
2023/03/06 09:30:25;;;;;;;13.63;9.52;;;;;;;11.55;59.48;97773.28;5071109;28;20185;-59
2023/03/06 09:32:50;;;;;;;13.68;9.02;;;;;;;11.93;59.12;97807.25;5070721;28;20734;-59
2023/03/06 09:35:17;;;;;;;15.77;9.60;;;;;;;12.00;58.96;97798.00;5070456;28;20181;-59
2023/03/06 09:37:43;;;;;;;12.07;9.40;;;;;;;12.22;58.83;97825.53;5057070;28;20367;-59
2023/03/06 09:40:21;;;;;;;12.00;9.38;;;;;;;12.35;58.56;97829.56;5052782;28;20253;-59
2023/03/06 09:42:47;;;;;;;15.25;9.57;;;;;;;12.39;58.28;97837.91;5053568;28;20180;-58
2023/03/06 09:45:13;;;;;;;13.07;9.65;;;;;;;12.59;58.08;97834.41;5052949;28;20623;-58
2023/03/06 09:48:08;;;;;;;12.02;8.95;;;;;;;12.60;57.94;97821.31;5052868;28;20272;-58
2023/03/06 09:50:44;;;;;;;15.80;8.70;;;;;;;12.61;58.26;97842.91;5067371;28;20202;-59
2023/03/06 09:53:22;;;;;;;14.27;9.10;;;;;;;12.71;56.52;97843.78;5053000;28;20268;-59
2023/03/06 09:55:57;;;;;;;15.50;10.52;;;;;;;12.62;57.02;97828.97;5052586;28;20207;-58
2023/03/06 09:58:26;;;;;;;11.02;9.00;;;;;;;12.68;57.80;97831.06;5052664;28;20346;-58
2023/03/06 10:01:10;;;;;;;16.67;9.82;;;;;;;12.44;57.56;97794.22;5052191;28;20208;-58
2023/03/06 10:03:55;;;;;;;12.95;9.63;;;;;;;12.48;57.89;97774.88;5052777;28;20170;-58
2023/03/06 10:06:29;;;;;;;19.77;11.93;;;;;;;12.64;57.68;97814.09;5052772;28;20201;-58
2023/03/06 10:08:54;;;;;;;34.90;23.05;;;;;;;12.88;57.46;97836.16;5052368;28;20181;-59
2023/03/06 10:11:31;;;;;;;14.90;11.23;;;;;;;12.61;57.54;97765.06;5052106;28;20178;-59
2023/03/06 10:14:27;;;;;;;16.85;12.90;;;;;;;12.81;56.98;97769.31;5052337;28;20165;-59
2023/03/06 10:16:53;;;;;;;13.48;10.32;;;;;;;13.06;57.43;97824.19;5053004;28;20240;-58
2023/03/06 10:19:20;;;;;;;11.73;9.23;;;;;;;12.99;57.27;97784.16;5052153;28;20247;-58
2023/03/06 10:22:21;;;;;;;13.75;9.38;;;;;;;13.21;56.50;97819.44;5052242;28;20178;-58
2023/03/06 10:24:58;;;;;;;13.57;9.88;;;;;;;13.42;55.83;97820.13;5031556;28;20359;-58
2023/03/06 10:27:47;;;;;;;12.90;8.65;;;;;;;13.54;55.43;97809.44;5034620;28;20196;-59
2023/03/06 10:30:31;;;;;;;14.93;9.75;;;;;;;13.72;55.40;97823.38;5033994;28;20664;-59
2023/03/06 10:32:58;;;;;;;14.27;9.25;;;;;;;13.74;55.10;97820.66;5034554;28;20187;-58
2023/03/06 10:35:48;;;;;;;11.82;8.88;;;;;;;13.78;54.43;97811.63;5034150;28;20214;-59
2023/03/06 10:38:22;;;;;;;12.13;8.45;;;;;;;13.73;53.92;97783.44;5014748;28;20249;-59
2023/03/06 10:41:09;;;;;;;12.15;8.57;;;;;;;14.00;53.96;97811.31;5014231;28;20194;-59
2023/03/06 10:43:36;;;;;;;32.35;17.02;;;;;;;14.22;53.36;97814.41;5014345;28;20178;-59
2023/03/06 10:46:02;;;;;;;13.73;9.25;;;;;;;14.11;53.53;97782.53;5014467;28;20191;-59
2023/03/06 10:48:29;;;;;;;14.50;9.98;;;;;;;14.23;52.48;97807.44;5014027;28;20202;-59
2023/03/06 10:51:13;;;;;;;50.70;26.90;;;;;;;14.30;52.40;97809.31;5013998;28;20358;-59
2023/03/06 10:53:54;;;;;;;52.72;27.85;;;;;;;14.10;51.91;97749.66;5014325;28;20269;-59
2023/03/06 10:56:30;;;;;;;25.88;14.70;;;;;;;14.69;51.35;97804.78;5027973;28;20271;-59
2023/03/06 10:59:12;;;;;;;13.30;8.95;;;;;;;14.95;51.18;97795.31;5034057;28;20224;-59
2023/03/06 11:01:52;;;;;;;13.57;9.02;;;;;;;15.12;51.20;97792.72;5034003;28;20265;-59
2023/03/06 11:04:30;;;;;;;12.75;9.10;;;;;;;15.02;50.48;97744.25;5033542;28;20190;-59
2023/03/06 11:07:14;;;;;;;12.48;8.32;;;;;;;15.42;50.02;97795.00;5033613;28;20272;-59
2023/03/06 11:09:42;;;;;;;20.50;10.40;;;;;;;15.25;50.70;97741.03;5049470;28;20204;-59
2023/03/06 11:12:27;;;;;;;14.60;9.70;;;;;;;15.59;49.58;97788.13;5055533;28;20674;-59
2023/03/06 11:15:23;;;;;;;13.85;9.65;;;;;;;15.57;49.58;97783.03;5056080;28;20223;-59
2023/03/06 11:18:27;;;;;;;12.77;9.10;;;;;;;15.68;49.53;97758.53;5053118;28;20750;-59
2023/03/06 11:20:54;;;;;;;13.50;9.32;;;;;;;15.92;48.75;97772.53;5053493;28;20178;-59
2023/03/06 11:23:34;;;;;;;251.00;88.68;;;;;;;15.81;47.89;97774.59;5053157;28;20185;-59
2023/03/06 11:26:14;;;;;;;15.88;9.77;;;;;;;15.50;48.59;97760.31;5053453;28;20177;-59
2023/03/06 11:28:44;;;;;;;67.57;27.52;;;;;;;15.34;49.28;97721.91;5052953;28;20562;-59
2023/03/06 11:31:15;;;;;;;42.10;17.20;;;;;;;15.69;49.88;97765.38;5052773;28;20186;-60
2023/03/06 11:33:55;;;;;;;13.57;8.68;;;;;;;15.82;48.41;97765.78;5053042;28;20220;-59
2023/03/06 11:36:35;;;;;;;11.68;8.63;;;;;;;15.88;47.83;97733.88;5052123;28;20228;-59